Time;durP1;ratioP1;P1;durP2;ratioP2;P2;SDS_P1;SDS_P2;PMS_P1;PMS_P2;Temp;Humidity;BMP_temperature;BMP_pressure;BME280_temperature;BME280_humidity;BME280_pressure;Samples;Min_cycle;Max_cycle;Signal;HPM_P1;HPM_P2
2023/03/20 00:00:35;;;;;;;26.05;15.68;;;12.30;99.90;;;;;;4964056;28;20025;-76
2023/03/20 00:03:01;;;;;;;24.38;15.30;;;12.30;99.90;;;;;;4960239;28;20125;-76
2023/03/20 00:05:28;;;;;;;22.42;15.45;;;12.20;99.90;;;;;;4960979;28;20027;-76
2023/03/20 00:07:56;;;;;;;27.73;15.25;;;12.30;99.90;;;;;;4965532;28;20536;-76
2023/03/20 00:10:26;;;;;;;24.83;15.07;;;12.30;99.90;;;;;;4965286;28;20391;-75
2023/03/20 00:12:52;;;;;;;26.75;15.75;;;12.40;99.90;;;;;;4964629;28;20065;-75
2023/03/20 00:15:32;;;;;;;26.27;14.90;;;12.40;99.90;;;;;;4961447;28;20076;-76
2023/03/20 00:17:58;;;;;;;24.60;15.07;;;12.20;99.90;;;;;;4956288;28;20026;-76
2023/03/20 00:20:24;;;;;;;29.77;15.60;;;12.20;99.90;;;;;;4960301;28;20446;-76
2023/03/20 00:22:50;;;;;;;26.45;15.07;;;12.20;99.90;;;;;;4961416;28;20029;-76
2023/03/20 00:25:19;;;;;;;28.58;15.82;;;12.20;99.90;;;;;;4959883;28;20106;-76
2023/03/20 00:27:45;;;;;;;30.33;17.42;;;12.10;99.90;;;;;;4961497;28;20022;-76
2023/03/20 00:30:27;;;;;;;27.33;16.70;;;12.00;99.90;;;;;;4962008;28;20120;-76
2023/03/20 00:32:57;;;;;;;28.70;17.10;;;12.00;99.90;;;;;;4958829;28;20054;-76
2023/03/20 00:35:28;;;;;;;27.98;16.05;;;12.00;99.90;;;;;;4963516;28;20146;-76
2023/03/20 00:37:56;;;;;;;28.02;15.52;;;12.00;99.90;;;;;;4962392;28;20610;-76
2023/03/20 00:40:29;;;;;;;31.80;17.17;;;11.90;99.90;;;;;;4964786;28;20502;-76
2023/03/20 00:43:03;;;;;;;28.02;15.90;;;12.00;99.90;;;;;;4964324;28;20029;-76
2023/03/20 00:45:32;;;;;;;29.90;16.60;;;11.90;99.90;;;;;;4960369;28;20030;-76
2023/03/20 00:47:58;;;;;;;34.97;18.45;;;12.00;99.90;;;;;;4961465;28;20472;-76
2023/03/20 00:50:28;;;;;;;31.35;17.10;;;11.90;99.90;;;;;;4960361;28;20031;-77
2023/03/20 00:52:55;;;;;;;33.67;18.48;;;11.90;99.90;;;;;;4965439;28;20019;-78
2023/03/20 00:55:24;;;;;;;32.00;18.40;;;11.80;99.90;;;;;;4963817;28;20026;-76
2023/03/20 00:57:59;;;;;;;30.08;18.15;;;11.80;99.90;;;;;;4961336;28;20671;-75
2023/03/20 01:00:36;;;;;;;33.28;18.92;;;11.80;99.90;;;;;;4963568;28;20027;-76
2023/03/20 01:03:19;;;;;;;32.38;18.65;;;11.80;99.90;;;;;;4963000;28;20092;-76
2023/03/20 01:05:45;;;;;;;;;;;11.80;99.90;;;;;;4963225;28;20031;-76
2023/03/20 01:08:19;;;;;;;34.65;17.67;;;11.80;99.90;;;;;;4962902;28;20033;-76
2023/03/20 01:10:47;;;;;;;30.88;17.77;;;11.80;99.90;;;;;;4961705;28;20027;-76
2023/03/20 01:13:23;;;;;;;33.00;18.95;;;11.80;99.90;;;;;;4960501;28;20464;-76
2023/03/20 01:15:52;;;;;;;37.92;18.48;;;11.70;99.90;;;;;;4964617;28;20011;-76
2023/03/20 01:18:20;;;;;;;35.40;18.73;;;11.70;99.90;;;;;;4959767;28;20027;-75
2023/03/20 01:20:46;;;;;;;33.85;18.70;;;11.60;99.90;;;;;;4961924;28;20050;-76
2023/03/20 01:23:13;;;;;;;43.72;21.05;;;11.60;99.90;;;;;;4976070;28;20027;-76
2023/03/20 01:25:39;;;;;;;30.75;18.77;;;11.60;99.90;;;;;;4971120;28;20031;-76
2023/03/20 01:28:19;;;;;;;32.47;18.25;;;11.50;99.90;;;;;;4971833;28;20023;-76
2023/03/20 01:30:45;;;;;;;37.58;19.10;;;11.50;99.90;;;;;;4970569;28;20069;-76
2023/03/20 01:33:14;;;;;;;33.53;18.13;;;11.40;99.90;;;;;;4979425;28;20038;-76
2023/03/20 01:35:39;;;;;;;38.60;20.77;;;11.20;99.90;;;;;;4981152;28;20027;-76
2023/03/20 01:38:17;;;;;;;36.17;19.15;;;11.20;99.90;;;;;;4976929;28;20529;-75
2023/03/20 01:40:52;;;;;;;38.35;20.27;;;11.20;99.90;;;;;;4977165;28;20090;-76
2023/03/20 01:43:20;;;;;;;38.10;19.05;;;11.10;99.90;;;;;;4973845;28;20059;-75
2023/03/20 01:46:16;;;;;;;43.25;18.88;;;11.10;99.90;;;;;;4970143;28;20118;-76
2023/03/20 01:48:51;;;;;;;35.13;18.00;;;11.10;99.90;;;;;;4966198;28;20463;-76
2023/03/20 01:51:28;;;;;;;33.47;16.05;;;11.00;99.90;;;;;;4971506;28;20069;-76
2023/03/20 01:53:57;;;;;;;31.90;17.20;;;11.00;99.90;;;;;;4985708;28;20027;-76
2023/03/20 01:56:23;;;;;;;31.92;16.65;;;11.00;99.90;;;;;;4967964;28;20031;-76
2023/03/20 01:58:55;;;;;;;30.05;14.80;;;11.00;99.90;;;;;;4967677;28;20030;-76
2023/03/20 02:01:23;;;;;;;27.35;15.13;;;11.00;99.90;;;;;;4968974;28;20050;-75
2023/03/20 02:03:50;;;;;;;28.20;15.68;;;11.00;99.90;;;;;;4972328;28;20035;-76
2023/03/20 02:06:18;;;;;;;29.02;14.82;;;11.00;99.90;;;;;;4968203;28;20015;-76
2023/03/20 02:08:49;;;;;;;30.00;15.88;;;10.90;99.90;;;;;;4970224;28;20077;-76
2023/03/20 02:11:18;;;;;;;28.88;15.32;;;10.90;99.90;;;;;;4970690;28;20089;-75
2023/03/20 02:13:46;;;;;;;27.85;15.55;;;10.90;99.90;;;;;;4968327;28;20805;-76
2023/03/20 02:16:14;;;;;;;29.65;14.90;;;10.80;99.90;;;;;;4969637;28;20031;-76
2023/03/20 02:18:43;;;;;;;25.30;15.57;;;10.90;99.90;;;;;;4967505;28;20105;-76
2023/03/20 02:21:14;;;;;;;26.52;14.48;;;10.80;99.90;;;;;;4962841;28;20057;-75
2023/03/20 02:23:46;;;;;;;27.50;14.88;;;10.80;99.90;;;;;;4967605;28;20046;-75
2023/03/20 02:26:21;;;;;;;31.10;15.90;;;10.80;99.90;;;;;;4966393;28;20045;-76
2023/03/20 02:29:19;;;;;;;28.88;13.88;;;10.70;99.90;;;;;;4965883;28;20046;-76
2023/03/20 02:32:04;;;;;;;32.15;15.27;;;10.70;99.90;;;;;;4968578;28;20039;-76
2023/03/20 02:34:45;;;;;;;26.90;14.38;;;10.70;99.90;;;;;;4968128;28;20062;-75
2023/03/20 02:37:39;;;;;;;37.78;16.00;;;10.60;99.90;;;;;;4966899;28;20113;-75
2023/03/20 02:40:05;;;;;;;28.17;15.68;;;10.50;99.90;;;;;;4965808;28;20408;-75
2023/03/20 02:42:44;;;;;;;31.23;15.75;;;10.50;99.90;;;;;;4963992;28;20027;-75
2023/03/20 02:45:26;;;;;;;28.98;16.20;;;10.30;99.90;;;;;;4964093;28;20035;-75
2023/03/20 02:48:30;;;;;;;29.25;16.85;;;10.40;99.90;;;;;;4970377;28;20027;-75
2023/03/20 02:51:01;;;;;;;32.60;16.45;;;10.40;99.90;;;;;;4965291;28;20086;-75
2023/03/20 02:54:05;;;;;;;30.63;16.42;;;10.50;99.90;;;;;;4966121;28;20035;-75
2023/03/20 02:57:03;;;;;;;27.48;15.57;;;10.50;99.90;;;;;;4966311;28;20027;-75
2023/03/20 02:59:31;;;;;;;25.95;15.25;;;10.40;99.90;;;;;;4966378;28;20360;-75
2023/03/20 03:02:19;;;;;;;29.88;16.05;;;10.40;99.90;;;;;;4965133;28;20023;-75
2023/03/20 03:04:57;;;;;;;29.65;16.20;;;10.50;99.90;;;;;;4966115;28;20031;-75
2023/03/20 03:07:27;;;;;;;28.95;15.77;;;10.40;99.90;;;;;;4965388;28;20065;-76
2023/03/20 03:09:59;;;;;;;26.25;14.30;;;10.50;99.90;;;;;;4968472;28;20041;-75
2023/03/20 03:12:36;;;;;;;27.50;14.33;;;10.50;99.90;;;;;;4965867;28;20171;-75
2023/03/20 03:15:14;;;;;;;28.48;15.52;;;10.50;99.90;;;;;;4963289;28;20105;-75
2023/03/20 03:17:43;;;;;;;26.75;14.50;;;10.40;99.90;;;;;;4966092;28;22225;-75
2023/03/20 03:20:19;;;;;;;29.60;14.93;;;10.40;99.90;;;;;;4964705;28;20034;-75
2023/03/20 03:22:46;;;;;;;20.55;12.00;;;10.40;99.90;;;;;;4963563;28;20081;-75
2023/03/20 03:25:12;;;;;;;26.70;14.00;;;10.30;99.90;;;;;;4963127;28;20027;-75
2023/03/20 03:27:41;;;;;;;26.55;13.93;;;10.30;99.90;;;;;;4966710;28;20062;-75
2023/03/20 03:30:33;;;;;;;25.08;13.77;;;10.40;99.90;;;;;;4964654;28;20032;-75
2023/03/20 03:33:20;;;;;;;23.58;12.90;;;10.30;99.90;;;;;;4965789;28;20054;-76
2023/03/20 03:35:47;;;;;;;26.17;13.70;;;10.40;99.90;;;;;;4962554;28;20018;-75
2023/03/20 03:38:43;;;;;;;22.77;12.98;;;10.40;99.90;;;;;;4966537;28;20102;-76
2023/03/20 03:41:27;;;;;;;26.45;13.75;;;10.30;99.90;;;;;;4967052;28;20059;-75
2023/03/20 03:44:03;;;;;;;25.60;13.80;;;10.30;99.90;;;;;;4969346;28;20546;-75
2023/03/20 03:46:38;;;;;;;21.17;12.07;;;10.30;99.90;;;;;;4967800;28;20543;-75
2023/03/20 03:49:06;;;;;;;21.80;13.05;;;10.30;99.90;;;;;;4971310;28;20059;-75
2023/03/20 03:51:35;;;;;;;26.60;13.35;;;10.30;99.90;;;;;;4974027;28;20030;-76
2023/03/20 03:54:20;;;;;;;31.23;14.93;;;10.40;99.90;;;;;;4971351;28;20062;-76
2023/03/20 03:56:49;;;;;;;24.00;14.25;;;10.40;99.90;;;;;;4978957;28;20023;-75
2023/03/20 03:59:35;;;;;;;27.70;14.82;;;10.30;99.90;;;;;;4987475;28;20027;-76
2023/03/20 04:02:04;;;;;;;23.10;13.05;;;10.20;99.90;;;;;;4982585;28;20039;-75
2023/03/20 04:04:32;;;;;;;24.00;14.00;;;10.20;99.90;;;;;;4970287;28;20058;-76
2023/03/20 04:06:58;;;;;;;22.75;12.40;;;10.20;99.90;;;;;;4976634;28;20026;-75
2023/03/20 04:09:24;;;;;;;23.55;11.77;;;10.30;99.90;;;;;;4978289;28;20027;-75
2023/03/20 04:11:51;;;;;;;23.13;13.95;;;10.20;99.90;;;;;;4969763;28;20066;-75
2023/03/20 04:14:17;;;;;;;22.67;13.82;;;10.20;99.90;;;;;;4967142;28;20030;-75
2023/03/20 04:16:43;;;;;;;26.33;11.82;;;10.20;99.90;;;;;;4978668;28;20054;-75
2023/03/20 04:19:09;;;;;;;26.13;12.07;;;10.10;99.90;;;;;;4980604;28;20108;-75
2023/03/20 04:21:36;;;;;;;19.80;12.48;;;10.20;99.90;;;;;;4972594;28;20118;-76
2023/03/20 04:24:02;;;;;;;21.13;10.93;;;10.10;99.90;;;;;;4972937;28;20028;-75
2023/03/20 04:26:28;;;;;;;26.20;13.57;;;10.10;99.90;;;;;;4974201;28;20041;-75
2023/03/20 04:28:53;;;;;;;24.90;13.32;;;10.10;99.90;;;;;;4973387;28;20027;-75
2023/03/20 04:31:19;;;;;;;23.23;12.02;;;10.10;99.90;;;;;;4968117;28;20131;-75
2023/03/20 04:33:45;;;;;;;19.90;11.75;;;10.10;99.90;;;;;;4979310;28;20049;-76
2023/03/20 04:36:11;;;;;;;22.08;11.18;;;10.10;99.90;;;;;;4968241;28;20039;-75
2023/03/20 04:38:37;;;;;;;18.77;10.73;;;10.20;99.90;;;;;;4973564;28;20043;-75
2023/03/20 04:41:03;;;;;;;20.08;11.77;;;10.20;99.90;;;;;;4973966;28;20022;-76
2023/03/20 04:43:29;;;;;;;21.83;10.68;;;10.20;99.90;;;;;;4977539;28;20049;-75
2023/03/20 04:45:55;;;;;;;22.45;11.68;;;10.00;99.90;;;;;;4972979;28;20480;-75
2023/03/20 04:48:21;;;;;;;20.80;11.98;;;10.00;99.90;;;;;;4979011;28;20027;-76
2023/03/20 04:50:47;;;;;;;22.00;11.70;;;10.10;99.90;;;;;;4980049;28;20072;-75
2023/03/20 04:53:14;;;;;;;19.08;11.15;;;10.10;99.90;;;;;;4975775;28;20039;-75
2023/03/20 04:55:40;;;;;;;20.70;11.95;;;10.00;99.90;;;;;;4978511;28;20030;-75
2023/03/20 04:58:06;;;;;;;21.50;11.73;;;10.00;99.90;;;;;;4971789;28;20106;-75
2023/03/20 05:00:32;;;;;;;22.20;12.35;;;9.90;99.90;;;;;;4975315;28;20113;-75
2023/03/20 05:02:58;;;;;;;21.23;11.60;;;10.00;99.90;;;;;;4972422;28;20154;-75
2023/03/20 05:05:24;;;;;;;23.42;11.88;;;9.90;99.90;;;;;;4974612;28;20128;-75
2023/03/20 05:07:50;;;;;;;22.38;12.32;;;9.90;99.90;;;;;;4972300;28;20038;-75
2023/03/20 05:10:17;;;;;;;21.67;12.55;;;10.00;99.90;;;;;;4967735;28;20471;-75
2023/03/20 05:12:42;;;;;;;27.98;12.57;;;9.90;99.90;;;;;;4976391;28;20061;-75
2023/03/20 05:15:08;;;;;;;24.33;12.75;;;9.70;99.90;;;;;;4978981;28;20485;-75
2023/03/20 05:17:34;;;;;;;25.38;13.25;;;9.70;99.90;;;;;;4973014;28;20027;-75
2023/03/20 05:19:59;;;;;;;24.67;12.77;;;9.60;99.90;;;;;;4971480;28;20034;-75
2023/03/20 05:22:25;;;;;;;21.52;12.80;;;9.50;99.90;;;;;;4971673;28;20090;-75
2023/03/20 05:24:51;;;;;;;29.48;12.55;;;9.60;99.90;;;;;;4971067;28;20031;-75
2023/03/20 05:27:17;;;;;;;26.08;12.77;;;9.70;99.90;;;;;;4974374;28;20018;-75
2023/03/20 05:29:43;;;;;;;28.33;13.05;;;9.70;99.90;;;;;;4974205;28;20509;-75
2023/03/20 05:32:08;;;;;;;27.33;12.43;;;9.70;99.90;;;;;;4976852;28;20035;-76
2023/03/20 05:34:34;;;;;;;25.05;12.07;;;9.70;99.90;;;;;;4966834;28;20491;-76
2023/03/20 05:37:00;;;;;;;25.80;12.90;;;9.80;99.90;;;;;;4974584;28;20033;-75
2023/03/20 05:39:25;;;;;;;23.88;11.95;;;9.70;99.90;;;;;;4965215;28;20108;-75
2023/03/20 05:41:51;;;;;;;26.98;12.50;;;9.70;99.90;;;;;;4974040;28;20487;-76
2023/03/20 05:44:16;;;;;;;26.25;12.65;;;9.70;99.90;;;;;;4971042;28;20030;-75
2023/03/20 05:46:42;;;;;;;23.95;12.52;;;9.70;99.90;;;;;;4975637;28;20110;-75
2023/03/20 05:49:08;;;;;;;22.02;12.15;;;9.70;99.90;;;;;;4971721;28;20023;-75
2023/03/20 05:51:34;;;;;;;25.05;11.98;;;9.70;99.90;;;;;;4971548;28;20096;-75
2023/03/20 05:54:00;;;;;;;28.92;12.57;;;9.70;99.90;;;;;;4962432;28;20023;-75
2023/03/20 05:56:25;;;;;;;23.85;12.27;;;9.70;99.90;;;;;;4971777;28;20702;-76
2023/03/20 05:58:51;;;;;;;21.75;11.95;;;9.70;99.90;;;;;;4977469;28;20062;-75
2023/03/20 06:01:20;;;;;;;16.63;8.63;;;9.70;99.90;;;;;;4972478;28;20537;-74
2023/03/20 06:03:47;;;;;;;22.75;12.32;;;9.70;99.90;;;;;;4980074;28;20030;-75
2023/03/20 06:06:13;;;;;;;22.38;12.25;;;9.70;99.90;;;;;;4974330;28;20126;-75
2023/03/20 06:08:39;;;;;;;27.65;13.00;;;9.80;99.90;;;;;;4969090;28;20965;-75
2023/03/20 06:11:05;;;;;;;23.48;12.18;;;9.80;99.90;;;;;;4974741;28;20046;-75
2023/03/20 06:13:31;;;;;;;20.45;11.65;;;9.80;99.90;;;;;;4973331;28;20026;-74
2023/03/20 06:15:56;;;;;;;29.20;12.07;;;9.70;99.90;;;;;;4977464;28;20027;-75
2023/03/20 06:18:22;;;;;;;27.50;12.05;;;9.80;99.90;;;;;;4972550;28;20037;-75
2023/03/20 06:20:53;;;;;;;26.77;12.68;;;9.80;99.90;;;;;;4977429;28;20022;-75
2023/03/20 06:23:18;;;;;;;27.08;12.25;;;9.80;99.90;;;;;;4980658;28;20444;-75
2023/03/20 06:25:44;;;;;;;23.58;11.75;;;9.90;99.90;;;;;;4974052;28;20051;-75
2023/03/20 06:28:09;;;;;;;22.58;11.52;;;9.90;99.90;;;;;;4970564;28;20420;-75
2023/03/20 06:30:36;;;;;;;24.55;10.93;;;9.80;99.90;;;;;;4970578;28;20035;-75
2023/03/20 06:33:02;;;;;;;22.60;11.35;;;9.80;99.90;;;;;;4963663;28;20503;-75
2023/03/20 06:35:30;;;;;;;25.05;11.38;;;9.80;99.90;;;;;;4974639;28;20031;-75
2023/03/20 06:37:56;;;;;;;21.98;11.95;;;9.80;99.90;;;;;;4973185;28;20042;-75
2023/03/20 06:40:24;;;;;;;22.27;12.32;;;9.80;99.90;;;;;;4970637;28;20047;-75
2023/03/20 06:42:50;;;;;;;28.65;11.18;;;9.80;99.90;;;;;;4977914;28;20023;-76
2023/03/20 06:45:15;;;;;;;21.45;11.05;;;9.80;99.90;;;;;;4969248;28;20549;-75
2023/03/20 06:47:41;;;;;;;25.70;10.90;;;9.80;99.90;;;;;;4974659;28;20065;-75
2023/03/20 06:50:08;;;;;;;28.05;11.50;;;9.80;99.90;;;;;;4978299;28;20026;-75
2023/03/20 06:52:34;;;;;;;22.45;11.20;;;9.80;99.90;;;;;;4971533;28;20057;-75
2023/03/20 06:55:00;;;;;;;32.95;10.77;;;9.90;99.90;;;;;;4969943;28;20027;-75
2023/03/20 06:57:25;;;;;;;26.15;11.13;;;9.90;99.90;;;;;;4969517;28;20034;-75
2023/03/20 06:59:51;;;;;;;24.58;11.07;;;9.90;99.90;;;;;;4963804;28;20394;-75
2023/03/20 07:02:17;;;;;;;24.52;12.18;;;9.90;99.90;;;;;;4973986;28;20441;-75
2023/03/20 07:04:42;;;;;;;20.08;11.30;;;9.90;99.90;;;;;;4967982;28;20034;-75
2023/03/20 07:07:08;;;;;;;23.50;11.60;;;9.80;99.90;;;;;;4977802;28;20399;-74
2023/03/20 07:09:34;;;;;;;23.85;10.68;;;9.90;99.90;;;;;;4973189;28;20034;-76
2023/03/20 07:12:01;;;;;;;20.60;11.60;;;9.90;99.90;;;;;;4979532;28;20399;-75
2023/03/20 07:14:27;;;;;;;21.73;10.63;;;9.90;99.90;;;;;;4978409;28;20019;-75
2023/03/20 07:16:55;;;;;;;20.98;10.85;;;10.00;99.90;;;;;;4970740;28;20089;-75
2023/03/20 07:19:20;;;;;;;25.90;10.68;;;10.00;99.90;;;;;;4974018;28;20077;-75
2023/03/20 07:21:46;;;;;;;19.92;10.98;;;10.00;99.90;;;;;;4990884;28;20491;-76
2023/03/20 07:24:12;;;;;;;21.80;11.00;;;10.00;99.90;;;;;;4972223;28;20384;-79
2023/03/20 07:26:39;;;;;;;23.80;11.75;;;10.10;99.90;;;;;;4973219;28;20073;-77
2023/03/20 07:29:05;;;;;;;28.60;12.52;;;10.10;99.90;;;;;;4971916;28;20038;-76
2023/03/20 07:31:31;;;;;;;27.83;12.35;;;10.10;99.90;;;;;;4977250;28;20476;-76
2023/03/20 07:33:57;;;;;;;21.83;12.38;;;10.10;99.90;;;;;;4969736;28;20109;-76
2023/03/20 07:36:23;;;;;;;24.92;11.57;;;10.10;99.90;;;;;;4975775;28;20403;-76
2023/03/20 07:38:49;;;;;;;32.92;11.75;;;10.10;99.90;;;;;;4973758;28;20043;-76
2023/03/20 07:41:15;;;;;;;22.70;10.90;;;10.10;99.90;;;;;;4973715;28;20045;-76
2023/03/20 07:43:41;;;;;;;19.42;11.13;;;10.20;99.90;;;;;;4968609;28;20028;-76
2023/03/20 07:46:07;;;;;;;23.27;11.50;;;10.30;99.90;;;;;;4977872;28;20049;-76
2023/03/20 07:48:34;;;;;;;20.58;10.38;;;10.30;99.90;;;;;;4980613;28;20063;-76
2023/03/20 07:51:00;;;;;;;25.38;10.50;;;10.30;99.90;;;;;;4974884;28;20034;-76
2023/03/20 07:53:27;;;;;;;23.15;11.43;;;10.40;99.90;;;;;;4980233;28;20034;-76
2023/03/20 07:55:52;;;;;;;26.10;10.95;;;10.30;99.90;;;;;;4972513;28;20105;-76
2023/03/20 07:58:18;;;;;;;24.63;10.65;;;10.40;99.90;;;;;;4977577;28;20030;-76
2023/03/20 08:00:44;;;;;;;22.48;9.80;;;10.40;99.90;;;;;;4974662;28;20030;-76
2023/03/20 08:03:10;;;;;;;23.17;9.82;;;10.30;99.90;;;;;;4982313;28;20117;-76
2023/03/20 08:05:36;;;;;;;17.83;9.90;;;10.30;99.90;;;;;;4979522;28;20114;-77
2023/03/20 08:08:01;;;;;;;19.95;9.27;;;10.30;99.90;;;;;;4970591;28;20043;-77
2023/03/20 08:10:27;;;;;;;20.80;8.88;;;10.40;99.90;;;;;;4973953;28;20504;-76
2023/03/20 08:12:53;;;;;;;22.15;9.90;;;10.40;99.90;;;;;;4978800;28;20038;-76
2023/03/20 08:15:19;;;;;;;22.33;8.73;;;10.30;99.90;;;;;;4971510;28;20105;-76
2023/03/20 08:17:45;;;;;;;22.50;9.52;;;10.40;99.90;;;;;;4968402;28;20503;-76
2023/03/20 08:20:12;;;;;;;14.20;8.27;;;10.50;99.90;;;;;;4978567;28;20026;-76
2023/03/20 08:22:38;;;;;;;16.95;8.07;;;10.50;99.90;;;;;;4977005;28;20082;-76
2023/03/20 08:25:03;;;;;;;21.85;8.73;;;10.40;99.90;;;;;;4973603;28;20435;-76
2023/03/20 08:27:29;;;;;;;19.38;8.85;;;10.50;99.90;;;;;;4980137;28;20053;-76
2023/03/20 08:29:55;;;;;;;20.98;8.90;;;10.40;99.90;;;;;;4968744;28;20487;-76
2023/03/20 08:32:21;;;;;;;21.50;8.13;;;10.40;99.90;;;;;;4978126;28;20049;-76
2023/03/20 08:34:47;;;;;;;18.00;7.53;;;10.40;99.90;;;;;;4970104;28;20090;-76
2023/03/20 08:37:12;;;;;;;15.93;7.00;;;10.50;99.90;;;;;;4981710;28;20030;-76
2023/03/20 08:39:39;;;;;;;17.25;7.15;;;10.50;99.90;;;;;;4972673;28;20031;-76
2023/03/20 08:42:05;;;;;;;17.33;7.15;;;10.60;99.90;;;;;;4972309;28;20014;-76
2023/03/20 08:44:31;;;;;;;19.33;7.85;;;10.50;99.90;;;;;;4978400;28;20054;-76
2023/03/20 08:46:57;;;;;;;18.23;6.28;;;10.60;99.90;;;;;;4960674;28;20016;-76
2023/03/20 08:49:23;;;;;;;16.42;6.40;;;10.60;99.90;;;;;;4970837;28;20479;-73
2023/03/20 08:51:49;;;;;;;16.77;5.78;;;10.60;99.90;;;;;;4973026;28;20042;-73
2023/03/20 08:54:17;;;;;;;15.32;5.65;;;10.40;99.90;;;;;;4977957;28;20029;-71
2023/03/20 08:56:46;;;;;;;15.20;6.10;;;10.40;99.90;;;;;;4973307;28;20042;-71
2023/03/20 08:59:11;;;;;;;12.73;5.53;;;10.40;99.90;;;;;;4972467;28;20479;-75
2023/03/20 09:01:37;;;;;;;16.35;6.28;;;10.50;99.90;;;;;;4973921;28;20048;-75
2023/03/20 09:04:03;;;;;;;16.13;6.10;;;10.50;99.90;;;;;;4973258;28;20495;-74
2023/03/20 09:06:30;;;;;;;18.60;6.88;;;10.50;99.90;;;;;;4973402;28;20034;-75
2023/03/20 09:08:56;;;;;;;14.50;6.38;;;10.50;99.90;;;;;;4973297;28;20090;-74
2023/03/20 09:11:22;;;;;;;11.57;5.88;;;10.50;99.90;;;;;;4971305;28;20031;-74
2023/03/20 09:13:48;;;;;;;13.40;5.88;;;10.50;99.90;;;;;;4975154;28;20027;-75
2023/03/20 09:16:14;;;;;;;17.83;6.75;;;10.60;99.90;;;;;;4964127;28;20476;-75
2023/03/20 09:18:39;;;;;;;13.80;5.90;;;10.60;99.90;;;;;;4972554;28;20027;-75
2023/03/20 09:21:05;;;;;;;16.95;5.68;;;10.60;99.90;;;;;;4977572;28;20535;-75
2023/03/20 09:23:32;;;;;;;16.85;5.93;;;10.60;99.90;;;;;;4965312;28;20113;-75
2023/03/20 09:25:57;;;;;;;18.33;6.22;;;10.70;99.90;;;;;;4974893;28;20542;-75
2023/03/20 09:28:23;;;;;;;17.63;6.40;;;10.70;99.90;;;;;;4977405;28;20026;-75
2023/03/20 09:30:53;;;;;;;15.95;5.82;;;10.70;99.90;;;;;;4969309;28;20039;-75
2023/03/20 09:33:19;;;;;;;17.77;6.25;;;10.60;99.90;;;;;;4965960;28;20030;-75
2023/03/20 09:35:44;;;;;;;15.13;5.40;;;10.60;99.90;;;;;;4977306;28;20033;-75
2023/03/20 09:38:11;;;;;;;16.50;6.10;;;10.50;99.90;;;;;;4970733;28;20027;-75
2023/03/20 09:40:51;;;;;;;24.13;6.70;;;10.50;99.90;;;;;;4971565;28;20035;-75
2023/03/20 09:43:25;;;;;;;15.75;5.97;;;10.50;99.90;;;;;;4967440;28;20023;-75
2023/03/20 09:46:16;;;;;;;13.40;5.18;;;10.40;99.90;;;;;;4968091;28;20026;-74
2023/03/20 09:49:10;;;;;;;13.23;5.35;;;10.60;99.90;;;;;;4965996;28;20042;-73
2023/03/20 09:52:28;;;;;;;15.38;6.70;;;10.60;99.90;;;;;;4967201;28;20407;-72
2023/03/20 09:54:57;;;;;;;12.15;5.70;;;10.50;99.90;;;;;;4935998;28;20042;-72
2023/03/20 09:57:27;;;;;;;15.52;5.75;;;10.50;99.90;;;;;;4969554;28;20541;-72
2023/03/20 10:00:15;;;;;;;16.75;6.45;;;10.50;99.90;;;;;;4969448;28;20435;-71
2023/03/20 10:03:05;;;;;;;12.50;4.72;;;10.60;99.90;;;;;;4973099;28;20373;-72
2023/03/20 10:05:41;;;;;;;12.88;5.13;;;10.50;99.90;;;;;;4968658;28;20031;-72
2023/03/20 10:08:15;;;;;;;20.13;5.88;;;10.60;99.90;;;;;;4963880;28;20498;-72
2023/03/20 10:10:50;;;;;;;15.85;5.82;;;10.70;99.90;;;;;;4968262;28;20507;-71
2023/03/20 10:13:43;;;;;;;17.83;6.15;;;10.70;99.90;;;;;;4974815;28;20034;-72
2023/03/20 10:16:28;;;;;;;15.70;6.57;;;10.60;99.90;;;;;;4971171;28;20030;-72
2023/03/20 10:19:21;;;;;;;17.13;6.45;;;10.60;99.90;;;;;;4978052;28;20399;-71
2023/03/20 10:21:50;;;;;;;14.35;5.22;;;10.70;99.90;;;;;;4964030;28;20519;-71
2023/03/20 10:24:41;;;;;;;14.82;6.15;;;10.70;99.90;;;;;;4974571;28;20037;-71
2023/03/20 10:27:20;;;;;;;14.82;6.05;;;10.70;99.90;;;;;;4969299;28;20025;-71
2023/03/20 10:30:17;;;;;;;14.75;5.38;;;10.60;99.90;;;;;;4976621;28;20076;-72
2023/03/20 10:32:49;;;;;;;16.55;6.10;;;10.70;99.90;;;;;;4964609;28;20497;-71
2023/03/20 10:35:36;;;;;;;13.27;5.88;;;10.60;99.90;;;;;;4974241;28;20101;-71
2023/03/20 10:38:22;;;;;;;22.33;6.75;;;10.60;99.90;;;;;;4969512;28;20085;-72
2023/03/20 10:40:49;;;;;;;18.70;5.55;;;10.70;99.90;;;;;;4967965;28;20596;-73
2023/03/20 10:43:22;;;;;;;19.35;6.43;;;10.60;99.90;;;;;;4969114;28;20041;-72
2023/03/20 10:46:09;;;;;;;19.40;6.55;;;10.60;99.90;;;;;;4967143;28;20034;-73
2023/03/20 10:48:41;;;;;;;17.73;6.55;;;10.60;99.90;;;;;;4972173;28;20125;-73
2023/03/20 10:51:16;;;;;;;17.38;6.10;;;10.60;99.90;;;;;;4972711;28;20078;-73
2023/03/20 10:53:46;;;;;;;19.70;6.47;;;10.60;99.90;;;;;;4973873;28;20034;-73
2023/03/20 10:56:29;;;;;;;15.52;5.88;;;10.40;99.90;;;;;;4967424;28;20499;-72
2023/03/20 10:59:22;;;;;;;16.25;6.00;;;10.50;99.90;;;;;;4973688;28;20035;-72
2023/03/20 11:01:48;;;;;;;12.88;5.80;;;10.60;99.90;;;;;;4936355;28;20142;-73
2023/03/20 11:04:14;;;;;;;22.17;9.55;;;10.70;99.90;;;;;;4955160;28;20039;-72
2023/03/20 11:06:48;;;;;;;20.58;6.75;;;10.70;99.90;;;;;;4959934;28;20026;-72
2023/03/20 11:09:22;;;;;;;16.33;5.97;;;10.70;99.90;;;;;;4958057;28;20051;-72
2023/03/20 11:11:54;;;;;;;18.88;6.88;;;10.60;99.90;;;;;;4960888;28;20046;-73
2023/03/20 11:14:23;;;;;;;20.70;6.65;;;10.80;99.90;;;;;;4957396;28;20023;-74
2023/03/20 11:16:54;;;;;;;18.60;6.20;;;10.80;99.90;;;;;;4959825;28;20022;-75
2023/03/20 11:19:22;;;;;;;20.52;6.63;;;10.80;99.90;;;;;;4956372;28;20420;-75
2023/03/20 11:21:57;;;;;;;17.33;6.50;;;10.90;99.90;;;;;;4958469;28;20106;-74
2023/03/20 11:24:28;;;;;;;17.23;6.75;;;10.80;99.90;;;;;;4957328;28;20053;-75
2023/03/20 11:27:04;;;;;;;20.42;7.20;;;10.90;99.90;;;;;;4962907;28;20074;-75
2023/03/20 11:29:33;;;;;;;16.70;7.05;;;10.90;99.90;;;;;;4958690;28;20055;-75
2023/03/20 11:32:21;;;;;;;20.27;7.35;;;11.20;99.90;;;;;;4957528;28;20647;-75
2023/03/20 11:34:47;;;;;;;11.00;5.78;;;11.10;99.90;;;;;;4959784;28;20098;-73
2023/03/20 11:37:34;;;;;;;20.38;6.60;;;11.10;99.90;;;;;;4959613;28;20022;-73
2023/03/20 11:40:12;;;;;;;14.98;5.53;;;11.10;99.90;;;;;;4957836;28;20113;-73
2023/03/20 11:42:38;;;;;;;18.67;5.70;;;11.10;99.90;;;;;;4956158;28;20019;-73
2023/03/20 11:45:17;;;;;;;12.13;5.78;;;11.10;99.90;;;;;;4959908;28;20102;-73
2023/03/20 11:47:47;;;;;;;22.02;7.30;;;11.20;99.90;;;;;;4957189;28;20106;-73
2023/03/20 11:50:34;;;;;;;23.38;7.13;;;11.20;99.90;;;;;;4958768;28;20028;-73
2023/03/20 11:53:20;;;;;;;21.40;6.65;;;11.30;99.90;;;;;;4962434;28;20038;-73
2023/03/20 11:56:02;;;;;;;20.80;6.50;;;11.50;99.90;;;;;;4960115;28;20023;-73
2023/03/20 11:58:28;;;;;;;20.58;6.85;;;11.60;99.90;;;;;;4965320;28;20065;-73
2023/03/20 12:00:55;;;;;;;18.52;6.28;;;11.70;99.90;;;;;;4963542;28;20376;-73
2023/03/20 12:03:40;;;;;;;14.82;5.90;;;11.80;99.90;;;;;;4963427;28;20019;-73
2023/03/20 12:06:15;;;;;;;19.10;6.72;;;12.00;99.90;;;;;;4961840;28;20037;-73
2023/03/20 12:08:44;;;;;;;14.30;5.65;;;12.00;99.90;;;;;;4962625;28;20051;-73
2023/03/20 12:11:38;;;;;;;18.08;6.85;;;12.00;99.90;;;;;;4960411;28;20495;-73
2023/03/20 12:14:09;;;;;;;16.77;5.70;;;12.00;99.90;;;;;;4963465;28;20027;-73
2023/03/20 12:16:36;;;;;;;17.73;7.50;;;12.10;99.90;;;;;;4958329;28;20035;-73
2023/03/20 12:19:16;;;;;;;12.32;5.78;;;12.10;99.90;;;;;;4959514;28;20026;-73
2023/03/20 12:22:08;;;;;;;21.33;6.90;;;12.10;99.90;;;;;;4959864;28;20042;-73
2023/03/20 12:24:41;;;;;;;17.63;6.00;;;12.00;99.90;;;;;;4961162;28;20467;-73
2023/03/20 12:27:31;;;;;;;15.55;6.18;;;12.00;99.90;;;;;;4956927;28;20027;-73
2023/03/20 12:30:12;;;;;;;18.45;6.60;;;12.00;99.90;;;;;;4958248;28;20023;-73
2023/03/20 12:33:05;;;;;;;17.52;6.03;;;12.10;99.90;;;;;;4961366;28;20094;-73
2023/03/20 12:35:34;;;;;;;;;;;12.20;99.90;;;;;;4958678;28;20039;-73
2023/03/20 12:37:59;;;;;;;19.73;6.20;;;12.20;99.90;;;;;;4959048;28;19918;-73
2023/03/20 12:40:42;;;;;;;13.50;6.05;;;12.30;99.90;;;;;;4959938;28;21473;-73
2023/03/20 12:43:18;;;;;;;17.98;7.30;;;12.40;99.90;;;;;;4957412;28;20053;-73
2023/03/20 12:45:55;;;;;;;13.02;5.80;;;12.40;99.90;;;;;;4959638;28;20109;-74
2023/03/20 12:48:47;;;;;;;16.50;5.30;;;12.50;99.90;;;;;;4956425;28;20117;-73
2023/03/20 12:51:16;;;;;;;14.40;5.57;;;12.50;99.90;;;;;;4959185;28;20090;-74
2023/03/20 12:54:31;;;;;;;16.00;6.30;;;12.50;99.90;;;;;;4957750;28;20055;-73